Time;durP1;ratioP1;P1;durP2;ratioP2;P2;SDS_P1;SDS_P2;PMS_P1;PMS_P2;Temp;Humidity;BMP_temperature;BMP_pressure;BME280_temperature;BME280_humidity;BME280_pressure;Samples;Min_cycle;Max_cycle;Signal;HPM_P1;HPM_P2
2023/01/29 00:00:14;;;;;;;;;;;3.70;80.30;;;;;;9172417;19;20356;-60
2023/01/29 00:03:18;;;;;;;;;;;3.70;80.30;;;;;;9176465;19;19919;-65
2023/01/29 00:06:24;;;;;;;;;;;3.70;80.30;;;;;;9173797;19;19934;-62
2023/01/29 00:09:28;;;;;;;;;;;3.70;80.30;;;;;;9176358;19;20284;-63
2023/01/29 00:12:36;;;;;;;;;;;3.70;80.20;;;;;;9179042;19;19911;-61
2023/01/29 00:15:39;;;;;;;;;;;3.70;80.30;;;;;;9184389;19;19926;-63
2023/01/29 00:18:45;;;;;;;;;;;3.70;80.30;;;;;;9182705;19;19938;-61
2023/01/29 00:21:48;;;;;;;;;;;3.70;80.20;;;;;;9184313;19;19941;-64
2023/01/29 00:24:54;;;;;;;;;;;3.70;80.30;;;;;;9183580;19;19919;-61
2023/01/29 00:28:00;;;;;;;;;;;3.70;80.30;;;;;;9184576;19;19922;-61
2023/01/29 00:31:09;;;;;;;;;;;3.70;80.30;;;;;;9184057;19;19927;-61
2023/01/29 00:34:13;;;;;;;;;;;3.70;80.30;;;;;;9184517;19;19978;-60
2023/01/29 00:37:18;;;;;;;;;;;3.70;80.20;;;;;;9183670;19;20340;-61
2023/01/29 00:40:23;;;;;;;;;;;3.70;80.30;;;;;;9182512;19;19915;-61
2023/01/29 00:46:48;;;;;;;;;;;3.70;80.30;;;;;;9181016;19;19917;-61
2023/01/29 00:49:54;;;;;;;;;;;3.70;80.30;;;;;;9183901;19;19938;-65
2023/01/29 00:52:58;;;;;;;;;;;3.70;80.30;;;;;;9181895;19;19927;-60
2023/01/29 00:56:04;;;;;;;;;;;3.70;80.30;;;;;;9183012;19;19933;-60
2023/01/29 00:59:09;;;;;;;;;;;3.70;80.30;;;;;;9179286;19;19915;-62
2023/01/29 01:05:33;;;;;;;;;;;3.70;80.30;;;;;;9182065;19;20488;-61
2023/01/29 01:11:56;;;;;;;;;;;3.70;80.30;;;;;;9180069;19;20285;-60
2023/01/29 01:15:03;;;;;;;;;;;3.60;80.20;;;;;;9180769;19;20526;-61
2023/01/29 01:18:07;;;;;;;;;;;3.60;80.30;;;;;;9169938;19;20671;-62
2023/01/29 01:21:13;;;;;;;;;;;3.60;80.30;;;;;;9169355;19;19915;-61
2023/01/29 01:24:17;;;;;;;;;;;3.60;80.30;;;;;;9170535;19;19974;-61
2023/01/29 01:27:22;;;;;;;;;;;3.60;80.30;;;;;;9170198;19;19923;-63
2023/01/29 01:30:28;;;;;;;;;;;3.60;80.30;;;;;;9177181;19;19950;-61
2023/01/29 01:33:34;;;;;;;;;;;3.60;80.30;;;;;;9179940;19;19926;-63
2023/01/29 01:36:37;;;;;;;;;;;3.60;80.30;;;;;;9179323;19;19919;-62
2023/01/29 01:39:49;;;;;;;;;;;3.60;80.30;;;;;;9181719;19;19929;-64
2023/01/29 01:42:54;;;;;;;;;;;3.70;80.40;;;;;;9181844;19;19923;-60
2023/01/29 01:46:01;;;;;;;;;;;3.70;80.40;;;;;;9179772;19;20252;-61
2023/01/29 01:49:08;;;;;;;;;;;3.70;80.40;;;;;;9179830;19;20000;-60
2023/01/29 01:52:15;;;;;;;;;;;3.70;80.40;;;;;;9181344;19;19946;-64
2023/01/29 01:55:22;;;;;;;;;;;3.70;80.40;;;;;;9181089;19;20397;-61
2023/01/29 01:58:29;;;;;;;;;;;3.70;80.30;;;;;;9175650;19;19911;-61
2023/01/29 02:01:34;;;;;;;;;;;3.70;80.40;;;;;;9178356;19;19911;-62
2023/01/29 02:11:22;;;;;;;;;;;3.70;80.40;;;;;;9176546;19;19929;-65
2023/01/29 02:14:26;;;;;;;;;;;3.70;80.30;;;;;;9178765;19;19915;-62
2023/01/29 02:17:34;;;;;;;;;;;3.70;80.30;;;;;;9180565;19;19915;-62
2023/01/29 02:20:39;;;;;;;;;;;3.70;80.40;;;;;;9181116;19;19915;-63
2023/01/29 02:23:56;;;;;;;;;;;3.70;80.40;;;;;;9180281;19;19922;-64
2023/01/29 02:27:06;;;;;;;;;;;3.70;80.30;;;;;;9177218;19;20002;-65
2023/01/29 02:30:16;;;;;;;;;;;3.70;80.40;;;;;;9180066;19;19934;-61
2023/01/29 02:33:24;;;;;;;;;;;3.70;80.40;;;;;;9180649;19;20313;-63
2023/01/29 02:36:36;;;;;;;;;;;3.70;80.40;;;;;;9179403;19;20424;-63
2023/01/29 02:39:43;;;;;;;;;;;3.70;80.40;;;;;;9178272;19;20675;-62
2023/01/29 02:42:52;;;;;;;;;;;3.70;80.30;;;;;;9179822;19;20356;-62
2023/01/29 02:46:01;;;;;;;;;;;3.80;80.40;;;;;;9178381;19;19918;-62
2023/01/29 02:49:10;;;;;;;;;;;3.70;80.30;;;;;;9177932;19;20344;-65
2023/01/29 02:52:17;;;;;;;;;;;3.80;80.40;;;;;;9179917;19;19915;-62
2023/01/29 02:55:25;;;;;;;;;;;3.80;80.40;;;;;;9178155;19;20312;-63
2023/01/29 02:58:31;;;;;;;;;;;3.80;80.40;;;;;;9175792;19;19919;-63
2023/01/29 03:01:41;;;;;;;;;;;3.80;80.30;;;;;;9177641;19;20272;-62
2023/01/29 03:04:47;;;;;;;;;;;3.80;80.40;;;;;;9177620;19;20435;-62
2023/01/29 03:07:54;;;;;;;;;;;3.80;80.30;;;;;;9175718;19;19926;-62
2023/01/29 03:11:07;;;;;;;;;;;3.80;80.40;;;;;;9174906;19;19919;-62
2023/01/29 03:14:17;;;;;;;;;;;3.80;80.40;;;;;;9176501;19;19954;-64
2023/01/29 03:17:26;;;;;;;;;;;3.80;80.40;;;;;;9176760;19;19915;-63
2023/01/29 03:20:35;;;;;;;;;;;3.80;80.40;;;;;;9178355;19;19930;-62
2023/01/29 03:34:04;;;;;;;;;;;3.80;80.40;;;;;;9178012;19;19923;-65
2023/01/29 03:37:12;;;;;;;;;;;3.80;80.40;;;;;;9175690;19;19918;-66
2023/01/29 03:40:18;;;;;;;;;;;3.80;80.40;;;;;;9175806;19;19923;-65
2023/01/29 03:43:28;;;;;;;;;;;3.80;80.40;;;;;;9177233;19;19910;-61
2023/01/29 03:46:38;;;;;;;;;;;3.80;80.40;;;;;;9174850;19;19922;-62
2023/01/29 03:49:51;;;;;;;;;;;3.80;80.40;;;;;;9185204;19;19938;-62
2023/01/29 03:53:02;;;;;;;;;;;3.80;80.40;;;;;;9183382;19;19930;-61
2023/01/29 03:56:08;;;;;;;;;;;3.80;80.40;;;;;;9184507;19;19933;-61
2023/01/29 03:59:19;;;;;;;;;;;3.80;80.40;;;;;;9180627;19;19933;-63
2023/01/29 04:02:43;;;;;;;;;;;3.80;80.40;;;;;;9183943;19;19922;-60
2023/01/29 04:06:08;;;;;;;;;;;3.80;80.50;;;;;;9181735;19;19919;-61
2023/01/29 04:09:20;;;;;;;;;;;3.80;80.50;;;;;;9182174;19;20546;-63
2023/01/29 04:12:29;;;;;;;;;;;3.80;80.40;;;;;;9183773;19;20289;-63
2023/01/29 04:15:36;;;;;;;;;;;3.80;80.40;;;;;;9183135;19;19915;-63
2023/01/29 04:18:42;;;;;;;;;;;3.80;80.40;;;;;;9182853;19;19930;-61
2023/01/29 04:21:49;;;;;;;;;;;3.80;80.50;;;;;;9182530;19;19922;-61
2023/01/29 04:25:01;;;;;;;;;;;3.80;80.40;;;;;;9183804;19;19937;-63
2023/01/29 04:28:08;;;;;;;;;;;3.80;80.50;;;;;;9182939;19;20332;-63
2023/01/29 04:31:15;;;;;;;;;;;3.70;81.00;;;;;;9182511;19;19915;-63
2023/01/29 04:34:22;;;;;;;;;;;3.70;80.40;;;;;;9184011;19;19935;-66
2023/01/29 04:37:36;;;;;;;;;;;3.70;80.40;;;;;;9181942;19;19929;-60
2023/01/29 04:40:44;;;;;;;;;;;3.70;80.50;;;;;;9183275;19;19982;-63
2023/01/29 04:43:54;;;;;;;;;;;3.70;80.50;;;;;;9183562;19;20382;-61
2023/01/29 04:47:02;;;;;;;;;;;3.70;80.50;;;;;;9181282;19;20285;-63
2023/01/29 04:50:14;;;;;;;;;;;3.70;80.50;;;;;;9183124;19;19953;-63
2023/01/29 04:53:24;;;;;;;;;;;3.70;80.50;;;;;;9181660;19;19929;-62
2023/01/29 04:56:34;;;;;;;;;;;3.70;80.50;;;;;;9183571;19;19926;-61
2023/01/29 04:59:41;;;;;;;;;;;3.70;80.50;;;;;;9176690;19;20280;-63
2023/01/29 05:02:47;;;;;;;;;;;3.70;80.50;;;;;;9182988;19;19923;-63
2023/01/29 05:05:52;;;;;;;;;;;3.70;80.50;;;;;;9181381;19;19922;-61
2023/01/29 05:09:00;;;;;;;;;;;3.70;80.50;;;;;;9182726;19;19919;-65
2023/01/29 05:12:04;;;;;;;;;;;3.60;80.40;;;;;;9179363;19;19922;-64
2023/01/29 05:15:13;;;;;;;;;;;3.70;80.50;;;;;;9182271;19;19927;-63
2023/01/29 05:18:16;;;;;;;;;;;3.70;80.60;;;;;;9182419;19;19942;-63
2023/01/29 05:21:23;;;;;;;;;;;3.70;80.60;;;;;;9182284;19;20332;-61
2023/01/29 05:24:28;;;;;;;;;;;3.60;80.50;;;;;;9182725;19;19923;-60
2023/01/29 05:30:53;;;;;;;;;;;3.60;80.50;;;;;;9182141;19;19918;-62
2023/01/29 05:33:59;;;;;;;;;;;3.60;80.50;;;;;;9182167;19;19922;-60
2023/01/29 05:37:03;;;;;;;;;;;3.60;80.50;;;;;;9182304;19;20255;-61
2023/01/29 05:40:11;;;;;;;;;;;3.60;80.50;;;;;;9181695;19;19930;-67
2023/01/29 05:43:16;;;;;;;;;;;3.60;80.50;;;;;;9181791;19;19918;-63
2023/01/29 05:46:22;;;;;;;;;;;3.60;80.60;;;;;;9180509;19;19929;-61
2023/01/29 05:49:25;;;;;;;;;;;3.60;80.50;;;;;;9181561;19;20230;-62
2023/01/29 05:52:31;;;;;;;;;;;3.60;80.50;;;;;;9181373;19;19926;-62
2023/01/29 05:55:36;;;;;;;;;;;3.60;80.50;;;;;;9179632;19;20571;-61
2023/01/29 05:58:42;;;;;;;;;;;3.60;80.50;;;;;;9177349;19;19922;-62
2023/01/29 06:01:46;;;;;;;;;;;3.60;80.50;;;;;;9181256;19;19925;-63
2023/01/29 06:04:51;;;;;;;;;;;3.60;80.50;;;;;;9181321;19;19919;-62
2023/01/29 06:07:56;;;;;;;;;;;3.60;80.50;;;;;;9177646;19;19928;-63
2023/01/29 06:11:03;;;;;;;;;;;3.60;80.50;;;;;;9177539;19;19945;-62
2023/01/29 06:14:07;;;;;;;;;;;3.60;80.50;;;;;;9180467;19;20260;-62
2023/01/29 06:17:13;;;;;;;;;;;3.60;80.50;;;;;;9181109;19;19938;-62
2023/01/29 06:20:16;;;;;;;;;;;3.60;80.60;;;;;;9180782;19;19915;-62
2023/01/29 06:23:23;;;;;;;;;;;3.60;80.60;;;;;;9180245;19;19922;-62
2023/01/29 06:26:28;;;;;;;;;;;3.50;80.50;;;;;;9178651;19;20282;-64
2023/01/29 06:29:35;;;;;;;;;;;3.50;80.50;;;;;;9179534;19;19955;-61
2023/01/29 06:32:38;;;;;;;;;;;3.60;80.60;;;;;;9180312;19;20363;-61
2023/01/29 06:35:44;;;;;;;;;;;3.50;80.60;;;;;;9179199;19;20271;-61
2023/01/29 06:38:48;;;;;;;;;;;3.50;80.60;;;;;;9177361;19;19938;-60
2023/01/29 06:41:56;;;;;;;;;;;3.50;80.60;;;;;;9179765;19;20340;-61
2023/01/29 06:44:59;;;;;;;;;;;3.50;80.60;;;;;;9180174;19;19919;-61
2023/01/29 06:48:05;;;;;;;;;;;3.50;80.60;;;;;;9176350;19;19927;-63
2023/01/29 06:51:09;;;;;;;;;;;3.50;80.60;;;;;;9178262;19;19922;-63
2023/01/29 06:54:15;;;;;;;;;;;3.50;80.60;;;;;;9179707;19;19927;-63
2023/01/29 06:57:20;;;;;;;;;;;3.50;80.60;;;;;;9179139;19;19918;-63
2023/01/29 07:00:26;;;;;;;;;;;3.50;80.60;;;;;;9174647;19;20263;-60
2023/01/29 07:03:30;;;;;;;;;;;3.50;81.20;;;;;;9179929;19;20324;-60
2023/01/29 07:06:35;;;;;;;;;;;3.50;80.60;;;;;;9177433;19;19919;-63
2023/01/29 07:09:39;;;;;;;;;;;3.50;80.60;;;;;;9177930;19;19954;-61
2023/01/29 07:12:46;;;;;;;;;;;3.50;80.60;;;;;;9178746;19;19941;-63
2023/01/29 07:15:50;;;;;;;;;;;3.60;80.70;;;;;;9178430;19;19930;-64
2023/01/29 07:18:56;;;;;;;;;;;3.50;80.60;;;;;;9178964;19;19926;-62
2023/01/29 07:22:01;;;;;;;;;;;3.50;80.60;;;;;;9173899;19;19911;-63
2023/01/29 07:25:07;;;;;;;;;;;3.60;80.70;;;;;;9178155;19;20748;-63
2023/01/29 07:28:13;;;;;;;;;;;3.50;80.60;;;;;;9172913;19;19938;-61
2023/01/29 07:31:18;;;;;;;;;;;3.50;80.60;;;;;;9178213;19;19922;-64
2023/01/29 07:34:22;;;;;;;;;;;3.50;80.60;;;;;;9177963;19;19918;-61
2023/01/29 07:37:28;;;;;;;;;;;3.60;80.70;;;;;;9177448;19;19918;-61
2023/01/29 07:40:32;;;;;;;;;;;3.50;80.50;;;;;;9177269;19;19934;-62
2023/01/29 07:43:39;;;;;;;;;;;3.50;80.60;;;;;;9177564;19;20272;-60
2023/01/29 07:46:43;;;;;;;;;;;3.50;80.60;;;;;;9176058;19;19970;-64
2023/01/29 07:49:49;;;;;;;;;;;3.50;80.60;;;;;;9177366;19;19923;-62
2023/01/29 07:52:53;;;;;;;;;;;3.50;80.60;;;;;;9177672;19;19915;-60
2023/01/29 07:55:58;;;;;;;;;;;3.50;80.60;;;;;;9176148;19;19927;-64
2023/01/29 07:59:04;;;;;;;;;;;3.50;80.70;;;;;;9171848;19;19922;-64
2023/01/29 08:02:10;;;;;;;;;;;3.50;80.60;;;;;;9175563;19;20244;-62
2023/01/29 08:05:13;;;;;;;;;;;3.50;80.60;;;;;;9176612;19;19925;-61
2023/01/29 08:08:20;;;;;;;;;;;3.50;80.60;;;;;;9170987;19;19926;-62
2023/01/29 08:11:23;;;;;;;;;;;3.50;80.70;;;;;;9173928;19;19915;-62
2023/01/29 08:14:31;;;;;;;;;;;3.50;80.60;;;;;;9175770;19;19915;-66
2023/01/29 08:17:35;;;;;;;;;;;3.50;80.60;;;;;;9175391;19;19947;-64
2023/01/29 08:20:54;;;;;;;;;;;3.50;80.60;;;;;;9176025;19;19927;-66
2023/01/29 08:23:57;;;;;;;;;;;3.50;80.60;;;;;;9175426;19;19915;-65
2023/01/29 08:27:03;;;;;;;;;;;3.50;80.60;;;;;;9174513;19;20264;-65
2023/01/29 08:30:10;;;;;;;;;;;3.50;80.60;;;;;;9176293;19;19945;-61
2023/01/29 08:33:16;;;;;;;;;;;3.50;80.60;;;;;;9176601;19;19929;-63
2023/01/29 08:36:24;;;;;;;;;;;3.50;80.70;;;;;;9178453;19;19922;-61
2023/01/29 08:39:30;;;;;;;;;;;3.50;80.60;;;;;;9175936;19;19915;-62
2023/01/29 08:42:35;;;;;;;;;;;3.50;80.70;;;;;;9170699;19;19938;-64
2023/01/29 08:45:44;;;;;;;;;;;3.50;80.60;;;;;;9166755;19;19926;-62
2023/01/29 08:48:47;;;;;;;;;;;3.50;80.70;;;;;;9168607;19;20782;-65
2023/01/29 08:51:55;;;;;;;;;;;3.50;80.60;;;;;;9169314;19;19919;-63
2023/01/29 08:54:59;;;;;;;;;;;3.50;80.60;;;;;;9175254;19;20344;-62
2023/01/29 08:58:05;;;;;;;;;;;3.50;80.60;;;;;;9170917;19;19919;-64
2023/01/29 09:01:11;;;;;;;;;;;3.60;80.70;;;;;;9174534;19;20332;-66
2023/01/29 09:04:16;;;;;;;;;;;3.60;80.70;;;;;;9174812;19;20539;-66
2023/01/29 09:07:21;;;;;;;;;;;3.60;80.70;;;;;;9174667;19;19941;-66
2023/01/29 09:10:26;;;;;;;;;;;3.60;80.80;;;;;;9175791;19;19931;-63
2023/01/29 09:13:30;;;;;;;;;;;3.60;80.70;;;;;;9174319;19;19955;-62
2023/01/29 09:16:37;;;;;;;;;;;3.60;80.70;;;;;;9175980;19;19922;-65
2023/01/29 09:19:41;;;;;;;;;;;3.60;80.70;;;;;;9175473;19;20490;-63
2023/01/29 09:22:48;;;;;;;;;;;3.60;80.70;;;;;;9171001;19;19927;-66
2023/01/29 09:25:51;;;;;;;;;;;3.60;80.70;;;;;;9168634;19;19927;-63
2023/01/29 09:28:57;;;;;;;;;;;3.60;80.70;;;;;;9172189;19;19938;-63
2023/01/29 09:32:02;;;;;;;;;;;3.70;80.70;;;;;;9172065;19;19919;-64
2023/01/29 09:35:09;;;;;;;;;;;3.70;80.70;;;;;;9171787;19;19919;-62
2023/01/29 09:38:13;;;;;;;;;;;3.70;80.80;;;;;;9173406;19;19926;-66
2023/01/29 09:41:27;;;;;;;;;;;3.70;80.70;;;;;;9173039;19;19923;-62
2023/01/29 09:44:36;;;;;;;;;;;3.70;80.70;;;;;;9172433;19;19925;-64
2023/01/29 09:47:43;;;;;;;;;;;3.80;80.70;;;;;;9173133;19;19922;-64
2023/01/29 09:50:48;;;;;;;;;;;3.80;80.70;;;;;;9174615;19;19927;-64
2023/01/29 09:53:56;;;;;;;;;;;3.80;80.70;;;;;;9174733;19;19918;-66
2023/01/29 09:57:01;;;;;;;;;;;3.80;80.70;;;;;;9172256;19;19922;-63
2023/01/29 10:00:08;;;;;;;;;;;3.80;80.70;;;;;;9171034;19;19941;-64
2023/01/29 10:03:23;;;;;;;;;;;3.80;80.70;;;;;;9174610;19;19962;-62
2023/01/29 10:06:35;;;;;;;;;;;3.90;80.70;;;;;;9171423;19;20337;-64
2023/01/29 10:09:54;;;;;;;;;;;3.90;80.70;;;;;;9172456;19;20466;-63
2023/01/29 10:13:03;;;;;;;;;;;3.90;80.70;;;;;;9173662;19;19938;-64
2023/01/29 10:16:17;;;;;;;;;;;3.90;80.70;;;;;;9171285;19;20248;-62
2023/01/29 10:19:38;;;;;;;;;;;3.90;80.70;;;;;;9174030;19;20339;-62
2023/01/29 10:22:57;;;;;;;;;;;3.90;80.70;;;;;;9174009;19;20336;-62
2023/01/29 10:26:03;;;;;;;;;;;4.00;80.70;;;;;;9171281;19;19934;-64
2023/01/29 10:29:08;;;;;;;;;;;4.00;80.70;;;;;;9171988;19;19927;-62
2023/01/29 10:32:16;;;;;;;;;;;4.00;80.80;;;;;;9173874;19;19929;-63
2023/01/29 10:35:23;;;;;;;;;;;4.00;80.70;;;;;;9174238;19;19927;-62
2023/01/29 10:38:36;;;;;;;;;;;4.00;80.70;;;;;;9166701;19;19922;-64
2023/01/29 10:41:45;;;;;;;;;;;4.10;80.80;;;;;;9173922;19;20270;-64
2023/01/29 10:44:56;;;;;;;;;;;4.10;80.80;;;;;;9173703;19;19915;-64
2023/01/29 10:48:08;;;;;;;;;;;4.10;80.80;;;;;;9170972;19;19918;-66
2023/01/29 10:51:23;;;;;;;;;;;4.10;80.70;;;;;;9173216;19;19915;-62
2023/01/29 10:54:46;;;;;;;;;;;4.10;80.70;;;;;;9173108;19;19926;-63
2023/01/29 10:57:59;;;;;;;;;;;4.10;80.70;;;;;;9172762;19;19934;-62
2023/01/29 11:01:02;;;;;;;;;;;4.20;80.80;;;;;;9171661;19;19931;-64
2023/01/29 11:04:12;;;;;;;;;;;4.20;80.80;;;;;;9172650;19;19919;-60
2023/01/29 11:07:17;;;;;;;;;;;4.20;80.70;;;;;;9171027;19;19919;-63
2023/01/29 11:10:25;;;;;;;;;;;4.20;80.70;;;;;;9171064;19;19934;-64
2023/01/29 11:13:32;;;;;;;;;;;4.30;80.80;;;;;;9171955;19;20390;-62
2023/01/29 11:16:45;;;;;;;;;;;4.30;80.70;;;;;;9172412;19;19923;-62
2023/01/29 11:19:50;;;;;;;;;;;4.30;80.70;;;;;;9172110;19;19959;-62
2023/01/29 11:22:56;;;;;;;;;;;4.30;80.70;;;;;;9172647;19;20286;-63
2023/01/29 11:26:03;;;;;;;;;;;4.30;80.70;;;;;;9171299;19;19926;-63
2023/01/29 11:29:30;;;;;;;;;;;4.30;80.70;;;;;;9168578;19;19922;-64
2023/01/29 11:32:35;;;;;;;;;;;4.30;80.70;;;;;;9171054;19;19951;-63
2023/01/29 11:35:40;;;;;;;;;;;4.40;80.80;;;;;;9171960;19;19918;-60
2023/01/29 11:38:44;;;;;;;;;;;4.40;80.70;;;;;;9170931;19;20501;-62
2023/01/29 11:41:54;;;;;;;;;;;4.40;80.70;;;;;;9170445;19;19923;-67
2023/01/29 11:44:58;;;;;;;;;;;4.40;80.70;;;;;;9171327;19;19929;-64
2023/01/29 11:48:04;;;;;;;;;;;4.50;80.80;;;;;;9169169;19;20370;-65
2023/01/29 11:51:09;;;;;;;;;;;4.50;80.80;;;;;;9171254;19;19926;-65
2023/01/29 11:54:18;;;;;;;;;;;4.50;80.80;;;;;;9170506;19;19929;-63
2023/01/29 11:57:28;;;;;;;;;;;4.60;80.80;;;;;;9171605;19;20601;-65
2023/01/29 12:00:35;;;;;;;;;;;4.60;80.70;;;;;;9164117;19;19927;-64
2023/01/29 12:03:42;;;;;;;;;;;4.60;80.70;;;;;;9169594;19;19937;-65
2023/01/29 12:06:50;;;;;;;;;;;4.60;80.70;;;;;;9170488;19;19925;-66
2023/01/29 12:09:55;;;;;;;;;;;4.60;80.70;;;;;;9176463;19;19946;-63
2023/01/29 12:13:19;;;;;;;;;;;4.70;80.80;;;;;;9177633;19;19922;-64
2023/01/29 12:16:26;;;;;;;;;;;4.70;80.70;;;;;;9178540;19;19971;-64
2023/01/29 12:19:35;;;;;;;;;;;4.70;80.70;;;;;;9178467;19;19914;-65
2023/01/29 12:22:41;;;;;;;;;;;4.70;80.70;;;;;;9177523;19;19950;-62
2023/01/29 12:25:51;;;;;;;;;;;4.80;80.70;;;;;;9183890;19;19930;-63
2023/01/29 12:29:05;;;;;;;;;;;4.80;80.70;;;;;;9182715;19;19930;-63
2023/01/29 12:32:15;;;;;;;;;;;4.80;80.70;;;;;;9183762;19;19926;-62
2023/01/29 12:35:21;;;;;;;;;;;4.80;80.70;;;;;;9184108;19;19919;-62
2023/01/29 12:38:26;;;;;;;;;;;4.80;80.70;;;;;;9184822;19;19919;-62
2023/01/29 12:41:33;;;;;;;;;;;4.80;80.70;;;;;;9183193;19;19923;-62
2023/01/29 12:44:44;;;;;;;;;;;4.80;80.70;;;;;;9183015;19;19911;-64
2023/01/29 12:47:49;;;;;;;;;;;4.90;81.30;;;;;;9180194;19;19932;-61
2023/01/29 12:50:56;;;;;;;;;;;4.90;80.70;;;;;;9182713;19;19922;-62
2023/01/29 12:54:02;;;;;;;;;;;4.90;80.70;;;;;;9182373;19;19982;-64
2023/01/29 12:57:11;;;;;;;;;;;4.90;80.70;;;;;;9183147;19;19950;-64
2023/01/29 13:00:19;;;;;;;;;;;4.90;80.60;;;;;;9179391;19;20384;-64
2023/01/29 13:03:27;;;;;;;;;;;4.90;80.70;;;;;;9183592;19;19938;-62
2023/01/29 13:06:32;;;;;;;;;;;4.90;80.60;;;;;;9182935;19;19923;-62
2023/01/29 13:09:40;;;;;;;;;;;4.90;80.60;;;;;;9183161;19;19926;-62
2023/01/29 13:12:49;;;;;;;;;;;5.00;80.70;;;;;;9183104;19;19925;-62
2023/01/29 13:15:58;;;;;;;;;;;4.90;80.70;;;;;;9183188;19;19961;-63
2023/01/29 13:19:03;;;;;;;;;;;4.90;81.30;;;;;;9182899;19;19929;-64
2023/01/29 13:22:16;;;;;;;;;;;5.00;80.70;;;;;;9182338;19;20236;-62
2023/01/29 13:25:20;;;;;;;;;;;5.00;80.70;;;;;;9180800;19;19923;-61
2023/01/29 13:28:27;;;;;;;;;;;4.90;80.70;;;;;;9180381;19;19929;-62
2023/01/29 13:31:34;;;;;;;;;;;5.00;80.70;;;;;;9180852;19;19914;-61
2023/01/29 13:34:44;;;;;;;;;;;5.00;80.70;;;;;;9182124;19;20351;-65
2023/01/29 13:37:49;;;;;;;;;;;5.00;80.70;;;;;;9182050;19;19923;-61
2023/01/29 13:40:57;;;;;;;;;;;5.00;80.70;;;;;;9182145;19;20655;-62
2023/01/29 13:44:00;;;;;;;;;;;5.00;80.70;;;;;;9182078;19;19923;-65
2023/01/29 13:47:09;;;;;;;;;;;5.00;80.70;;;;;;9181344;19;19925;-65
2023/01/29 13:50:19;;;;;;;;;;;5.00;80.70;;;;;;9182096;19;20372;-62
2023/01/29 13:53:26;;;;;;;;;;;5.00;80.70;;;;;;9181938;19;19922;-64
2023/01/29 13:56:30;;;;;;;;;;;5.00;80.70;;;;;;9182277;19;19919;-63
2023/01/29 13:59:52;;;;;;;;;;;5.00;80.70;;;;;;9177458;19;19930;-62
2023/01/29 14:03:11;;;;;;;;;;;5.00;80.70;;;;;;9181577;19;19934;-62
2023/01/29 14:06:32;;;;;;;;;;;5.00;80.70;;;;;;9180487;19;19927;-62
2023/01/29 14:09:56;;;;;;;;;;;5.00;80.70;;;;;;9177660;19;19921;-63
2023/01/29 14:13:23;;;;;;;;;;;5.00;80.70;;;;;;9181030;19;20327;-63
2023/01/29 14:16:34;;;;;;;;;;;5.00;80.70;;;;;;9180106;19;20305;-63
2023/01/29 14:19:47;;;;;;;;;;;5.00;80.70;;;;;;9178783;19;19926;-64
2023/01/29 14:22:54;;;;;;;;;;;5.00;80.80;;;;;;9177841;19;19923;-63
2023/01/29 14:26:00;;;;;;;;;;;5.10;80.70;;;;;;9180701;19;19919;-61
2023/01/29 14:29:06;;;;;;;;;;;5.00;81.30;;;;;;9176654;19;19930;-61
2023/01/29 14:32:16;;;;;;;;;;;5.00;80.70;;;;;;9177846;19;19929;-62
2023/01/29 14:35:21;;;;;;;;;;;5.00;80.70;;;;;;9171348;19;19923;-61
2023/01/29 14:38:28;;;;;;;;;;;5.00;80.80;;;;;;9170930;19;19918;-61
2023/01/29 14:41:33;;;;;;;;;;;5.00;80.70;;;;;;9165940;19;19923;-64
2023/01/29 14:44:54;;;;;;;;;;;5.00;80.70;;;;;;9170226;19;19922;-63
2023/01/29 14:48:01;;;;;;;;;;;5.00;80.70;;;;;;9168992;19;19922;-63
2023/01/29 14:51:08;;;;;;;;;;;5.00;80.70;;;;;;9170362;19;19929;-62
2023/01/29 14:54:17;;;;;;;;;;;5.00;80.80;;;;;;9172233;19;19926;-61
2023/01/29 14:57:24;;;;;;;;;;;5.00;80.80;;;;;;9170544;19;20790;-63
2023/01/29 15:00:29;;;;;;;;;;;5.00;80.80;;;;;;9167600;19;19925;-61
2023/01/29 15:03:41;;;;;;;;;;;5.00;80.80;;;;;;9172356;19;20339;-64
2023/01/29 15:06:46;;;;;;;;;;;5.00;80.80;;;;;;9168425;19;19941;-62
2023/01/29 15:09:54;;;;;;;;;;;5.00;80.80;;;;;;9168531;19;20348;-62
2023/01/29 15:13:20;;;;;;;;;;;5.00;80.80;;;;;;9172482;19;20326;-63
2023/01/29 15:16:28;;;;;;;;;;;5.00;80.90;;;;;;9171577;19;19930;-61
2023/01/29 15:19:35;;;;;;;;;;;5.00;80.80;;;;;;9167061;19;20705;-64
2023/01/29 15:22:43;;;;;;;;;;;5.00;80.80;;;;;;9172219;19;19927;-63
2023/01/29 15:25:49;;;;;;;;;;;5.00;80.90;;;;;;9170312;19;19954;-63
2023/01/29 15:28:55;;;;;;;;;;;5.00;80.90;;;;;;9168934;19;19926;-65
2023/01/29 15:32:07;;;;;;;;;;;5.00;80.80;;;;;;9172001;19;19988;-64
2023/01/29 15:35:20;;;;;;;;;;;5.00;80.80;;;;;;9166893;19;20375;-63
2023/01/29 15:38:25;;;;;;;;;;;5.00;80.80;;;;;;9167518;19;20336;-64
2023/01/29 15:41:31;;;;;;;;;;;5.00;80.80;;;;;;9163484;19;19918;-65
2023/01/29 15:44:35;;;;;;;;;;;5.00;80.80;;;;;;9174599;19;19955;-64
2023/01/29 15:47:40;;;;;;;;;;;5.00;80.90;;;;;;9174194;19;19918;-68
2023/01/29 15:50:46;;;;;;;;;;;5.00;80.80;;;;;;9177986;19;19922;-63
2023/01/29 15:53:53;;;;;;;;;;;5.00;80.80;;;;;;9178270;19;19923;-66
2023/01/29 15:56:58;;;;;;;;;;;5.00;80.80;;;;;;9179106;19;19915;-64
2023/01/29 16:00:05;;;;;;;;;;;5.00;80.80;;;;;;9175009;19;19922;-64
2023/01/29 16:03:17;;;;;;;;;;;4.90;80.80;;;;;;9179609;19;19919;-66
2023/01/29 16:06:25;;;;;;;;;;;4.90;80.90;;;;;;9178362;19;19919;-63
2023/01/29 16:09:29;;;;;;;;;;;4.90;80.90;;;;;;9177132;19;20266;-62
2023/01/29 16:12:35;;;;;;;;;;;4.90;80.90;;;;;;9178235;19;19926;-63
2023/01/29 16:15:39;;;;;;;;;;;4.90;80.90;;;;;;9177141;19;20363;-64
2023/01/29 16:18:47;;;;;;;;;;;4.90;80.90;;;;;;9177544;19;19930;-67
2023/01/29 16:22:07;;;;;;;;;;;4.90;80.90;;;;;;9178356;19;20332;-63
2023/01/29 16:25:14;;;;;;;;;;;4.80;80.80;;;;;;9178880;19;19934;-63
2023/01/29 16:28:18;;;;;;;;;;;4.90;80.90;;;;;;9176565;19;19949;-62
2023/01/29 16:31:25;;;;;;;;;;;4.80;80.90;;;;;;9178283;19;19945;-63
2023/01/29 16:34:31;;;;;;;;;;;4.80;80.90;;;;;;9177743;19;19923;-63
2023/01/29 16:37:39;;;;;;;;;;;4.80;80.90;;;;;;9177633;19;19919;-63
2023/01/29 16:41:03;;;;;;;;;;;4.80;80.90;;;;;;9176414;19;19925;-62
2023/01/29 16:44:31;;;;;;;;;;;4.80;80.90;;;;;;9177487;19;20355;-64
2023/01/29 16:47:35;;;;;;;;;;;4.80;80.90;;;;;;9177104;19;20635;-61
2023/01/29 16:50:41;;;;;;;;;;;4.80;80.80;;;;;;9173628;19;19930;-62
2023/01/29 16:54:07;;;;;;;;;;;4.80;80.90;;;;;;9173140;19;19929;-62
2023/01/29 16:57:14;;;;;;;;;;;4.70;80.80;;;;;;9177452;19;20348;-63
2023/01/29 17:00:21;;;;;;;;;;;4.70;80.80;;;;;;9173244;19;19919;-61
2023/01/29 17:03:28;;;;;;;;;;;4.70;80.80;;;;;;9176906;19;19927;-63
2023/01/29 17:06:32;;;;;;;;;;;4.70;80.80;;;;;;9176194;19;19922;-62
2023/01/29 17:09:40;;;;;;;;;;;4.70;80.90;;;;;;9173798;19;20232;-65
2023/01/29 17:12:48;;;;;;;;;;;4.70;80.90;;;;;;9175174;19;19994;-63
2023/01/29 17:15:54;;;;;;;;;;;4.60;80.80;;;;;;9176358;19;19934;-62
2023/01/29 17:18:58;;;;;;;;;;;4.60;80.80;;;;;;9176152;19;19915;-64
2023/01/29 17:22:07;;;;;;;;;;;4.60;80.90;;;;;;9176361;19;19927;-66
2023/01/29 17:25:13;;;;;;;;;;;4.60;80.90;;;;;;9173795;19;20857;-63
2023/01/29 17:28:19;;;;;;;;;;;4.60;80.90;;;;;;9173180;19;19911;-62
2023/01/29 17:31:23;;;;;;;;;;;4.60;80.80;;;;;;9176394;19;20307;-62
2023/01/29 17:34:29;;;;;;;;;;;4.60;80.90;;;;;;9176780;19;19922;-63
2023/01/29 17:37:33;;;;;;;;;;;4.50;80.90;;;;;;9175584;19;20233;-61
2023/01/29 17:40:42;;;;;;;;;;;4.50;80.80;;;;;;9175742;19;19919;-65
2023/01/29 17:43:46;;;;;;;;;;;4.50;80.90;;;;;;9173441;19;20636;-63
2023/01/29 17:46:51;;;;;;;;;;;4.50;80.90;;;;;;9173850;19;19918;-61
2023/01/29 17:49:56;;;;;;;;;;;4.50;80.80;;;;;;9170935;19;19919;-62
2023/01/29 17:53:02;;;;;;;;;;;4.50;80.90;;;;;;9172768;19;20390;-62
2023/01/29 17:56:11;;;;;;;;;;;4.50;80.90;;;;;;9172802;19;20340;-63
2023/01/29 17:59:17;;;;;;;;;;;4.50;80.90;;;;;;9167021;19;20405;-63
2023/01/29 18:02:21;;;;;;;;;;;4.50;80.90;;;;;;9172938;19;19918;-64
2023/01/29 18:05:34;;;;;;;;;;;4.40;80.90;;;;;;9169021;19;19918;-66
2023/01/29 18:08:39;;;;;;;;;;;4.40;80.90;;;;;;9171091;19;20352;-64
2023/01/29 18:11:46;;;;;;;;;;;4.40;80.90;;;;;;9169644;19;20355;-62
2023/01/29 18:14:50;;;;;;;;;;;4.40;80.90;;;;;;9171990;19;19927;-62
2023/01/29 18:17:55;;;;;;;;;;;4.40;80.90;;;;;;9171085;19;19923;-63
2023/01/29 18:20:59;;;;;;;;;;;4.40;80.90;;;;;;9172594;19;20387;-62
2023/01/29 18:24:05;;;;;;;;;;;4.40;81.00;;;;;;9172147;19;19918;-62
2023/01/29 18:27:12;;;;;;;;;;;4.40;81.00;;;;;;9171767;19;20316;-61
2023/01/29 18:30:17;;;;;;;;;;;4.40;81.00;;;;;;9167997;19;19918;-65
2023/01/29 18:33:22;;;;;;;;;;;4.40;80.90;;;;;;9171047;19;19938;-62
2023/01/29 18:36:28;;;;;;;;;;;4.40;81.00;;;;;;9171784;19;20351;-63
2023/01/29 18:39:32;;;;;;;;;;;4.40;81.00;;;;;;9171924;19;20302;-62
2023/01/29 18:42:40;;;;;;;;;;;4.40;81.00;;;;;;9171053;19;19919;-65
2023/01/29 18:45:43;;;;;;;;;;;4.40;81.00;;;;;;9169443;19;19922;-61
2023/01/29 18:48:49;;;;;;;;;;;4.50;81.00;;;;;;9169633;19;19918;-62
2023/01/29 18:51:53;;;;;;;;;;;4.50;81.10;;;;;;9173031;19;19929;-62
2023/01/29 18:54:59;;;;;;;;;;;4.50;81.10;;;;;;9172861;19;20264;-63
2023/01/29 18:58:08;;;;;;;;;;;4.50;81.10;;;;;;9161480;19;21267;-66